33V

Walden-Jackson County Airport

Walden, Colorado, USA
METAR K33V 232235Z AUTO 26018G30KT 10SM SCT090 SCT110 15/M06 A3013 RMK AO1
Observed Flight Rules
Apr-23 @ 22:35 UTC (13 minutes ago) Visual Flight Rules
Wind Visibility Clouds
260° at 18 knots
 Gusting to 30 knots
10 miles
  • Scattered at 9,000' AGL
  • Scattered at 11,000' AGL
Temperatures Readings
Current 15°C / 59°F
Dewpoint -6°C / 21°F
Humidity 23%
Altimeter 30.13" Hg
Pressure 1020 hPa
Elevation 2484
METAR K33V 232235Z AUTO 26018G30KT 10SM SCT090 SCT110 15/M06 A3013 RMK AO1
Observed Flight Rules
Apr-23 @ 22:35 UTC
(13 minutes ago)
VFR
Wind Visibility
260° at 18 knots
 Gusting to 30 knots
10 miles
Clouds
  • Scattered at 9,000' AGL
  • Scattered at 11,000' AGL
Temperature Dewpoint
15°C / 59°F -6°C / 21°F
Humidity Altimeter Pressure
23% 30.13" Hg 1020 hPa